INFORMACIÓN METAR y TAF
METAR FOR LEBA
ADDS - METARS form results

(0059 UTC 05 July 2020)
Data provider http://aviationweather.gov/metar/data/
 
METAR text: LEBA 050030Z AUTO 23003KT 190V250 CAVOK 24/11 Q1018
Conditions at: LEBA (CORDOBA AIRPORT , ES) observed 0030 UTC 05 July 2020
Temperature: 24.0°C (75°F)
Dewpoint: 11.0°C (52°F) [RH = 44%]
Pressure (altimeter): 30.06 inches Hg (1018.0 mb)
Winds: from the SW (230 degrees) at 3 MPH (3 knots; 1.5 m/s)
Visibility: 6 or more miles (10+ km)
Ceiling: ceiling and visibility are OK
Clouds: unknown
Weather: no significant weather observed at this time

METAR text: LEBA 050000Z AUTO VRB01KT CAVOK 25/12 Q1018
Conditions at: LEBA (CORDOBA AIRPORT , ES) observed 0000 UTC 05 July 2020
Temperature: 25.0°C (77°F)
Dewpoint: 12.0°C (54°F) [RH = 44%]
Pressure (altimeter): 30.06 inches Hg (1018.0 mb)
Winds: variable direction winds at 1 MPH (1 knots; 0.5 m/s)
Visibility: 6 or more miles (10+ km)
Ceiling: ceiling and visibility are OK
Clouds: unknown
Weather: no significant weather observed at this time

Forecast for: LEBA (CORDOBA AIRPORT , ES)
Text: TAF LEBA 041700Z 0418/0503 24005KT CAVOK
Forecast period: 1800 UTC 04 July 2020 to 0300 UTC 05 July 2020
Forecast type: FROM: standard forecast or significant change
Winds: from the WSW (240 degrees) at 6 MPH (5 knots; 2.6 m/s)
Visibility: 6 or more miles 10+ km)
Ceiling: unknown
Clouds: missing
Weather: NSW  (no significant weather)

 MAPA DE AEROPUERTO

 INFORMACIÓN DE PISTA
Pista 03 Longitud 4527 ft Ancho 148 ft
Elevación 293 ft Umbral desplazado 0 ft Rumbo de pista 29
Pista 21 Longitud 4527 ft Ancho 148 ft
Elevación 297 ft Umbral desplazado 0 ft Rumbo de pista 209

 FRECUANCIAS DEL AEROPUERTO
Tipo CTAF Nombre CTAF Frecuencia 118.3 MHZ

 RADIO AYUDAS DEL AEROPUERTO
Tipo VOR-DME Nombre Cordoba Frecuencia 112400 KHZ
Tipo NDB Nombre Cordoba Frecuencia 366 KHZ



Powered by Virtual Airlines Manager [v2.6.2]